sensor_id;sensor_type;location;lat;lon;timestamp;P1;durP1;ratioP1;P2;durP2;ratioP2
30243;SDS011;64022;53.652;9.792;2023-04-21T00:00:16;9.93;;;5.00;;
30243;SDS011;64022;53.652;9.792;2023-04-21T00:02:42;9.10;;;5.33;;
30243;SDS011;64022;53.652;9.792;2023-04-21T00:05:08;10.32;;;4.93;;
30243;SDS011;64022;53.652;9.792;2023-04-21T00:07:35;8.50;;;5.10;;
30243;SDS011;64022;53.652;9.792;2023-04-21T00:10:08;10.90;;;5.30;;
30243;SDS011;64022;53.652;9.792;2023-04-21T00:12:34;9.05;;;5.07;;
30243;SDS011;64022;53.652;9.792;2023-04-21T00:15:00;8.27;;;4.97;;
30243;SDS011;64022;53.652;9.792;2023-04-21T00:17:25;8.57;;;5.07;;
30243;SDS011;64022;53.652;9.792;2023-04-21T00:19:51;8.23;;;5.17;;
30243;SDS011;64022;53.652;9.792;2023-04-21T00:22:17;10.90;;;5.60;;
30243;SDS011;64022;53.652;9.792;2023-04-21T00:24:43;9.57;;;5.30;;
30243;SDS011;64022;53.652;9.792;2023-04-21T00:27:08;8.83;;;5.20;;
30243;SDS011;64022;53.652;9.792;2023-04-21T00:29:35;7.40;;;4.88;;
30243;SDS011;64022;53.652;9.792;2023-04-21T00:32:00;7.00;;;4.83;;
30243;SDS011;64022;53.652;9.792;2023-04-21T00:36:53;6.93;;;4.35;;
30243;SDS011;64022;53.652;9.792;2023-04-21T00:39:19;9.00;;;4.93;;
30243;SDS011;64022;53.652;9.792;2023-04-21T00:41:45;8.33;;;4.60;;
30243;SDS011;64022;53.652;9.792;2023-04-21T00:44:10;9.00;;;5.07;;
30243;SDS011;64022;53.652;9.792;2023-04-21T00:46:36;6.90;;;4.50;;
30243;SDS011;64022;53.652;9.792;2023-04-21T00:49:03;7.05;;;4.75;;
30243;SDS011;64022;53.652;9.792;2023-04-21T00:51:30;8.75;;;5.20;;
30243;SDS011;64022;53.652;9.792;2023-04-21T00:53:58;8.13;;;5.13;;
30243;SDS011;64022;53.652;9.792;2023-04-21T00:56:24;7.95;;;4.80;;
30243;SDS011;64022;53.652;9.792;2023-04-21T00:58:52;8.73;;;4.95;;
30243;SDS011;64022;53.652;9.792;2023-04-21T01:01:18;7.82;;;4.97;;
30243;SDS011;64022;53.652;9.792;2023-04-21T01:03:44;10.07;;;5.10;;
30243;SDS011;64022;53.652;9.792;2023-04-21T01:06:11;7.00;;;4.85;;
30243;SDS011;64022;53.652;9.792;2023-04-21T01:08:36;9.73;;;5.33;;
30243;SDS011;64022;53.652;9.792;2023-04-21T01:11:12;7.87;;;4.87;;
30243;SDS011;64022;53.652;9.792;2023-04-21T01:13:38;7.47;;;4.65;;
30243;SDS011;64022;53.652;9.792;2023-04-21T01:16:04;5.70;;;4.25;;
30243;SDS011;64022;53.652;9.792;2023-04-21T01:18:31;7.47;;;4.70;;
30243;SDS011;64022;53.652;9.792;2023-04-21T01:20:57;6.63;;;4.53;;
30243;SDS011;64022;53.652;9.792;2023-04-21T01:23:23;7.83;;;4.47;;
30243;SDS011;64022;53.652;9.792;2023-04-21T01:25:49;8.50;;;5.20;;
30243;SDS011;64022;53.652;9.792;2023-04-21T01:28:22;8.07;;;4.50;;
30243;SDS011;64022;53.652;9.792;2023-04-21T01:30:48;8.35;;;4.35;;
30243;SDS011;64022;53.652;9.792;2023-04-21T01:33:13;8.77;;;4.63;;
30243;SDS011;64022;53.652;9.792;2023-04-21T01:35:39;9.50;;;4.37;;
30243;SDS011;64022;53.652;9.792;2023-04-21T01:38:04;8.23;;;4.60;;
30243;SDS011;64022;53.652;9.792;2023-04-21T01:40:30;7.63;;;4.73;;
30243;SDS011;64022;53.652;9.792;2023-04-21T01:42:56;7.57;;;4.43;;
30243;SDS011;64022;53.652;9.792;2023-04-21T01:45:22;7.53;;;4.57;;
30243;SDS011;64022;53.652;9.792;2023-04-21T01:47:48;8.37;;;4.63;;
30243;SDS011;64022;53.652;9.792;2023-04-21T01:50:13;8.80;;;4.73;;
30243;SDS011;64022;53.652;9.792;2023-04-21T01:52:40;5.53;;;4.23;;
30243;SDS011;64022;53.652;9.792;2023-04-21T01:55:05;7.47;;;4.82;;
30243;SDS011;64022;53.652;9.792;2023-04-21T01:57:31;7.27;;;5.03;;
30243;SDS011;64022;53.652;9.792;2023-04-21T01:59:57;5.90;;;4.40;;
30243;SDS011;64022;53.652;9.792;2023-04-21T02:02:22;6.60;;;4.53;;
30243;SDS011;64022;53.652;9.792;2023-04-21T02:04:48;7.60;;;4.73;;
30243;SDS011;64022;53.652;9.792;2023-04-21T02:07:13;6.97;;;4.57;;
30243;SDS011;64022;53.652;9.792;2023-04-21T02:09:39;6.23;;;4.07;;
30243;SDS011;64022;53.652;9.792;2023-04-21T02:12:05;6.33;;;4.53;;
30243;SDS011;64022;53.652;9.792;2023-04-21T02:14:31;6.97;;;4.80;;
30243;SDS011;64022;53.652;9.792;2023-04-21T02:16:56;6.80;;;4.40;;
30243;SDS011;64022;53.652;9.792;2023-04-21T02:19:22;6.93;;;4.90;;
30243;SDS011;64022;53.652;9.792;2023-04-21T02:21:48;9.13;;;4.43;;
30243;SDS011;64022;53.652;9.792;2023-04-21T02:24:13;9.87;;;4.50;;
30243;SDS011;64022;53.652;9.792;2023-04-21T02:26:39;7.40;;;4.53;;
30243;SDS011;64022;53.652;9.792;2023-04-21T02:29:05;6.37;;;4.37;;
30243;SDS011;64022;53.652;9.792;2023-04-21T02:31:30;8.53;;;4.47;;
30243;SDS011;64022;53.652;9.792;2023-04-21T02:33:56;10.03;;;4.67;;
30243;SDS011;64022;53.652;9.792;2023-04-21T02:36:22;7.78;;;4.65;;
30243;SDS011;64022;53.652;9.792;2023-04-21T02:38:48;8.73;;;4.57;;
30243;SDS011;64022;53.652;9.792;2023-04-21T02:41:13;7.60;;;4.47;;
30243;SDS011;64022;53.652;9.792;2023-04-21T02:43:39;8.73;;;4.40;;
30243;SDS011;64022;53.652;9.792;2023-04-21T02:46:05;7.63;;;4.50;;
30243;SDS011;64022;53.652;9.792;2023-04-21T02:48:32;9.48;;;4.40;;
30243;SDS011;64022;53.652;9.792;2023-04-21T02:50:58;6.97;;;4.82;;
30243;SDS011;64022;53.652;9.792;2023-04-21T02:53:24;6.47;;;4.40;;
30243;SDS011;64022;53.652;9.792;2023-04-21T02:55:49;10.63;;;4.67;;
30243;SDS011;64022;53.652;9.792;2023-04-21T02:58:15;8.67;;;4.60;;
30243;SDS011;64022;53.652;9.792;2023-04-21T03:00:40;8.67;;;5.07;;
30243;SDS011;64022;53.652;9.792;2023-04-21T03:03:06;7.87;;;4.57;;
30243;SDS011;64022;53.652;9.792;2023-04-21T03:05:32;6.23;;;4.57;;
30243;SDS011;64022;53.652;9.792;2023-04-21T03:07:57;6.90;;;4.60;;
30243;SDS011;64022;53.652;9.792;2023-04-21T03:10:23;6.90;;;4.20;;
30243;SDS011;64022;53.652;9.792;2023-04-21T03:12:48;7.07;;;4.30;;
30243;SDS011;64022;53.652;9.792;2023-04-21T03:15:14;6.67;;;4.33;;
30243;SDS011;64022;53.652;9.792;2023-04-21T03:17:40;6.53;;;4.20;;
30243;SDS011;64022;53.652;9.792;2023-04-21T03:20:07;10.10;;;4.23;;
30243;SDS011;64022;53.652;9.792;2023-04-21T03:22:34;6.25;;;4.22;;
30243;SDS011;64022;53.652;9.792;2023-04-21T03:25:00;9.07;;;4.60;;
30243;SDS011;64022;53.652;9.792;2023-04-21T03:27:25;6.93;;;4.13;;
30243;SDS011;64022;53.652;9.792;2023-04-21T03:29:51;8.30;;;4.17;;
30243;SDS011;64022;53.652;9.792;2023-04-21T03:32:16;9.77;;;5.03;;
30243;SDS011;64022;53.652;9.792;2023-04-21T03:34:42;8.17;;;4.70;;
30243;SDS011;64022;53.652;9.792;2023-04-21T03:37:07;7.17;;;4.30;;
30243;SDS011;64022;53.652;9.792;2023-04-21T03:39:33;6.90;;;4.47;;
30243;SDS011;64022;53.652;9.792;2023-04-21T03:41:59;5.90;;;4.60;;
30243;SDS011;64022;53.652;9.792;2023-04-21T03:44:25;5.68;;;3.88;;
30243;SDS011;64022;53.652;9.792;2023-04-21T03:46:51;7.27;;;4.23;;
30243;SDS011;64022;53.652;9.792;2023-04-21T03:51:43;6.70;;;4.00;;
30243;SDS011;64022;53.652;9.792;2023-04-21T03:54:09;7.17;;;4.23;;
30243;SDS011;64022;53.652;9.792;2023-04-21T03:56:34;8.17;;;3.73;;
30243;SDS011;64022;53.652;9.792;2023-04-21T03:59:00;6.47;;;4.00;;
30243;SDS011;64022;53.652;9.792;2023-04-21T04:01:25;6.20;;;4.03;;
30243;SDS011;64022;53.652;9.792;2023-04-21T04:03:51;6.83;;;4.33;;
30243;SDS011;64022;53.652;9.792;2023-04-21T04:06:17;6.80;;;4.00;;
30243;SDS011;64022;53.652;9.792;2023-04-21T04:08:42;7.33;;;4.47;;
30243;SDS011;64022;53.652;9.792;2023-04-21T04:11:08;6.93;;;4.03;;
30243;SDS011;64022;53.652;9.792;2023-04-21T04:13:33;7.50;;;4.83;;
30243;SDS011;64022;53.652;9.792;2023-04-21T04:15:59;8.90;;;4.50;;
30243;SDS011;64022;53.652;9.792;2023-04-21T04:18:25;5.33;;;3.77;;
30243;SDS011;64022;53.652;9.792;2023-04-21T04:20:50;5.03;;;3.90;;
30243;SDS011;64022;53.652;9.792;2023-04-21T04:23:16;6.13;;;3.87;;
30243;SDS011;64022;53.652;9.792;2023-04-21T04:25:41;6.53;;;4.07;;
30243;SDS011;64022;53.652;9.792;2023-04-21T04:28:07;8.50;;;4.30;;
30243;SDS011;64022;53.652;9.792;2023-04-21T04:30:33;7.63;;;4.03;;
30243;SDS011;64022;53.652;9.792;2023-04-21T04:32:59;7.28;;;3.88;;
30243;SDS011;64022;53.652;9.792;2023-04-21T04:35:25;7.27;;;4.27;;
30243;SDS011;64022;53.652;9.792;2023-04-21T04:37:50;5.60;;;4.40;;
30243;SDS011;64022;53.652;9.792;2023-04-21T04:40:17;7.07;;;4.00;;
30243;SDS011;64022;53.652;9.792;2023-04-21T04:42:43;5.93;;;3.97;;
30243;SDS011;64022;53.652;9.792;2023-04-21T04:45:10;5.68;;;3.67;;
30243;SDS011;64022;53.652;9.792;2023-04-21T04:50:03;5.35;;;4.22;;
30243;SDS011;64022;53.652;9.792;2023-04-21T04:52:29;5.28;;;3.92;;
30243;SDS011;64022;53.652;9.792;2023-04-21T04:54:55;6.47;;;4.63;;
30243;SDS011;64022;53.652;9.792;2023-04-21T04:57:21;5.63;;;4.00;;
30243;SDS011;64022;53.652;9.792;2023-04-21T04:59:46;5.80;;;4.10;;
30243;SDS011;64022;53.652;9.792;2023-04-21T05:02:12;5.70;;;3.63;;
30243;SDS011;64022;53.652;9.792;2023-04-21T05:04:38;5.63;;;4.37;;
30243;SDS011;64022;53.652;9.792;2023-04-21T05:07:04;7.77;;;4.03;;
30243;SDS011;64022;53.652;9.792;2023-04-21T05:09:33;6.10;;;3.83;;
30243;SDS011;64022;53.652;9.792;2023-04-21T05:11:59;7.30;;;4.28;;
30243;SDS011;64022;53.652;9.792;2023-04-21T05:14:25;6.05;;;3.80;;
30243;SDS011;64022;53.652;9.792;2023-04-21T05:16:51;6.80;;;4.03;;
30243;SDS011;64022;53.652;9.792;2023-04-21T05:19:16;5.43;;;3.87;;
30243;SDS011;64022;53.652;9.792;2023-04-21T05:21:42;7.10;;;4.17;;
30243;SDS011;64022;53.652;9.792;2023-04-21T05:24:07;7.73;;;3.97;;
30243;SDS011;64022;53.652;9.792;2023-04-21T05:26:33;6.80;;;3.83;;
30243;SDS011;64022;53.652;9.792;2023-04-21T05:28:58;7.33;;;4.00;;
30243;SDS011;64022;53.652;9.792;2023-04-21T05:31:24;4.23;;;3.30;;
30243;SDS011;64022;53.652;9.792;2023-04-21T05:33:50;6.63;;;4.17;;
30243;SDS011;64022;53.652;9.792;2023-04-21T05:36:15;9.27;;;4.87;;
30243;SDS011;64022;53.652;9.792;2023-04-21T05:38:41;6.40;;;4.23;;
30243;SDS011;64022;53.652;9.792;2023-04-21T05:41:07;6.37;;;4.27;;
30243;SDS011;64022;53.652;9.792;2023-04-21T05:43:33;7.23;;;4.43;;
30243;SDS011;64022;53.652;9.792;2023-04-21T05:45:59;5.10;;;3.83;;
30243;SDS011;64022;53.652;9.792;2023-04-21T05:48:25;5.38;;;4.03;;
30243;SDS011;64022;53.652;9.792;2023-04-21T05:53:18;6.03;;;3.47;;
30243;SDS011;64022;53.652;9.792;2023-04-21T05:55:43;6.53;;;3.90;;
30243;SDS011;64022;53.652;9.792;2023-04-21T05:58:09;6.10;;;3.97;;
30243;SDS011;64022;53.652;9.792;2023-04-21T06:00:35;5.53;;;3.57;;
30243;SDS011;64022;53.652;9.792;2023-04-21T06:03:00;7.83;;;4.23;;
30243;SDS011;64022;53.652;9.792;2023-04-21T06:05:26;5.83;;;3.83;;
30243;SDS011;64022;53.652;9.792;2023-04-21T06:10:19;4.07;;;3.45;;
30243;SDS011;64022;53.652;9.792;2023-04-21T06:12:45;6.18;;;4.00;;
30243;SDS011;64022;53.652;9.792;2023-04-21T06:15:10;6.47;;;4.03;;
30243;SDS011;64022;53.652;9.792;2023-04-21T06:17:36;5.87;;;4.00;;
30243;SDS011;64022;53.652;9.792;2023-04-21T06:20:01;6.60;;;3.97;;
30243;SDS011;64022;53.652;9.792;2023-04-21T06:22:28;6.45;;;3.97;;
30243;SDS011;64022;53.652;9.792;2023-04-21T06:24:53;5.40;;;3.80;;
30243;SDS011;64022;53.652;9.792;2023-04-21T06:27:19;6.93;;;3.80;;
30243;SDS011;64022;53.652;9.792;2023-04-21T06:29:44;4.53;;;3.50;;
30243;SDS011;64022;53.652;9.792;2023-04-21T06:32:10;6.00;;;3.60;;
30243;SDS011;64022;53.652;9.792;2023-04-21T06:34:36;7.18;;;4.88;;
30243;SDS011;64022;53.652;9.792;2023-04-21T06:37:02;9.85;;;4.40;;
30243;SDS011;64022;53.652;9.792;2023-04-21T06:39:28;19.05;;;5.53;;
30243;SDS011;64022;53.652;9.792;2023-04-21T06:41:54;21.50;;;6.20;;
30243;SDS011;64022;53.652;9.792;2023-04-21T06:44:22;11.52;;;5.85;;
30243;SDS011;64022;53.652;9.792;2023-04-21T06:46:47;18.10;;;5.50;;
30243;SDS011;64022;53.652;9.792;2023-04-21T06:49:13;19.07;;;6.27;;
30243;SDS011;64022;53.652;9.792;2023-04-21T06:51:38;12.13;;;6.50;;
30243;SDS011;64022;53.652;9.792;2023-04-21T06:54:04;12.80;;;6.00;;
30243;SDS011;64022;53.652;9.792;2023-04-21T06:56:30;11.83;;;6.07;;
30243;SDS011;64022;53.652;9.792;2023-04-21T06:58:56;11.57;;;7.13;;
30243;SDS011;64022;53.652;9.792;2023-04-21T07:01:21;17.00;;;6.33;;
30243;SDS011;64022;53.652;9.792;2023-04-21T07:03:50;14.85;;;6.70;;
30243;SDS011;64022;53.652;9.792;2023-04-21T07:06:15;15.13;;;6.77;;
30243;SDS011;64022;53.652;9.792;2023-04-21T07:08:41;13.77;;;6.60;;
30243;SDS011;64022;53.652;9.792;2023-04-21T07:11:07;14.00;;;7.33;;
30243;SDS011;64022;53.652;9.792;2023-04-21T07:13:32;12.73;;;7.23;;
30243;SDS011;64022;53.652;9.792;2023-04-21T07:15:58;15.07;;;7.00;;
30243;SDS011;64022;53.652;9.792;2023-04-21T07:18:24;12.63;;;6.20;;
30243;SDS011;64022;53.652;9.792;2023-04-21T07:20:49;10.50;;;6.13;;
30243;SDS011;64022;53.652;9.792;2023-04-21T07:23:15;14.10;;;6.17;;
30243;SDS011;64022;53.652;9.792;2023-04-21T07:25:41;15.33;;;6.23;;
30243;SDS011;64022;53.652;9.792;2023-04-21T07:28:06;15.43;;;6.03;;
30243;SDS011;64022;53.652;9.792;2023-04-21T07:30:32;8.03;;;5.93;;
30243;SDS011;64022;53.652;9.792;2023-04-21T07:32:57;13.47;;;6.63;;
30243;SDS011;64022;53.652;9.792;2023-04-21T07:35:23;11.87;;;5.80;;
30243;SDS011;64022;53.652;9.792;2023-04-21T07:37:49;10.23;;;6.07;;
30243;SDS011;64022;53.652;9.792;2023-04-21T07:40:16;11.63;;;6.38;;
30243;SDS011;64022;53.652;9.792;2023-04-21T07:42:41;13.33;;;7.30;;
30243;SDS011;64022;53.652;9.792;2023-04-21T07:45:07;11.23;;;6.33;;
30243;SDS011;64022;53.652;9.792;2023-04-21T07:47:33;12.93;;;6.87;;
30243;SDS011;64022;53.652;9.792;2023-04-21T07:49:58;12.17;;;6.20;;
30243;SDS011;64022;53.652;9.792;2023-04-21T07:52:25;8.27;;;5.75;;
30243;SDS011;64022;53.652;9.792;2023-04-21T07:54:50;14.17;;;7.30;;
30243;SDS011;64022;53.652;9.792;2023-04-21T07:57:16;16.27;;;7.67;;
30243;SDS011;64022;53.652;9.792;2023-04-21T07:59:41;15.50;;;7.93;;
30243;SDS011;64022;53.652;9.792;2023-04-21T08:02:07;9.80;;;6.67;;
30243;SDS011;64022;53.652;9.792;2023-04-21T08:04:33;14.70;;;7.17;;
30243;SDS011;64022;53.652;9.792;2023-04-21T08:06:59;10.50;;;6.17;;
30243;SDS011;64022;53.652;9.792;2023-04-21T08:09:25;10.23;;;6.10;;
30243;SDS011;64022;53.652;9.792;2023-04-21T08:11:50;12.33;;;6.43;;
30243;SDS011;64022;53.652;9.792;2023-04-21T08:14:16;11.83;;;6.83;;
30243;SDS011;64022;53.652;9.792;2023-04-21T08:16:42;9.93;;;6.43;;
30243;SDS011;64022;53.652;9.792;2023-04-21T08:19:08;14.07;;;6.37;;
30243;SDS011;64022;53.652;9.792;2023-04-21T08:21:34;11.23;;;6.60;;
30243;SDS011;64022;53.652;9.792;2023-04-21T08:24:00;9.27;;;6.32;;
30243;SDS011;64022;53.652;9.792;2023-04-21T08:26:26;9.00;;;6.43;;
30243;SDS011;64022;53.652;9.792;2023-04-21T08:28:53;11.70;;;7.15;;
30243;SDS011;64022;53.652;9.792;2023-04-21T08:31:20;10.50;;;6.68;;
30243;SDS011;64022;53.652;9.792;2023-04-21T08:33:45;13.03;;;7.40;;
30243;SDS011;64022;53.652;9.792;2023-04-21T08:36:11;12.47;;;6.33;;
30243;SDS011;64022;53.652;9.792;2023-04-21T08:38:37;11.13;;;6.57;;
30243;SDS011;64022;53.652;9.792;2023-04-21T08:41:03;10.23;;;6.18;;
30243;SDS011;64022;53.652;9.792;2023-04-21T08:43:29;8.68;;;6.45;;
30243;SDS011;64022;53.652;9.792;2023-04-21T08:45:55;10.70;;;6.63;;
30243;SDS011;64022;53.652;9.792;2023-04-21T08:48:21;10.90;;;6.47;;
30243;SDS011;64022;53.652;9.792;2023-04-21T08:50:49;9.07;;;6.07;;
30243;SDS011;64022;53.652;9.792;2023-04-21T08:53:16;14.15;;;6.18;;
30243;SDS011;64022;53.652;9.792;2023-04-21T08:55:42;10.63;;;6.60;;
30243;SDS011;64022;53.652;9.792;2023-04-21T08:58:08;9.52;;;6.57;;
30243;SDS011;64022;53.652;9.792;2023-04-21T09:00:34;14.20;;;6.97;;
30243;SDS011;64022;53.652;9.792;2023-04-21T09:03:00;10.70;;;6.32;;
30243;SDS011;64022;53.652;9.792;2023-04-21T09:05:30;10.23;;;6.28;;
30243;SDS011;64022;53.652;9.792;2023-04-21T09:08:10;11.25;;;6.70;;
30243;SDS011;64022;53.652;9.792;2023-04-21T09:10:43;10.30;;;6.50;;
30243;SDS011;64022;53.652;9.792;2023-04-21T09:13:16;12.65;;;6.75;;
30243;SDS011;64022;53.652;9.792;2023-04-21T09:15:47;11.57;;;6.35;;
30243;SDS011;64022;53.652;9.792;2023-04-21T09:18:16;11.35;;;6.25;;
30243;SDS011;64022;53.652;9.792;2023-04-21T09:20:47;9.77;;;6.20;;
30243;SDS011;64022;53.652;9.792;2023-04-21T09:23:15;12.90;;;7.90;;
30243;SDS011;64022;53.652;9.792;2023-04-21T09:25:42;9.88;;;6.38;;
30243;SDS011;64022;53.652;9.792;2023-04-21T09:28:09;12.63;;;6.75;;
30243;SDS011;64022;53.652;9.792;2023-04-21T09:30:39;9.32;;;6.75;;
30243;SDS011;64022;53.652;9.792;2023-04-21T09:33:06;8.60;;;5.97;;
30243;SDS011;64022;53.652;9.792;2023-04-21T09:35:35;12.95;;;6.38;;
30243;SDS011;64022;53.652;9.792;2023-04-21T09:38:05;9.65;;;6.95;;
30243;SDS011;64022;53.652;9.792;2023-04-21T09:40:35;9.15;;;6.75;;
30243;SDS011;64022;53.652;9.792;2023-04-21T09:43:02;11.00;;;6.25;;
30243;SDS011;64022;53.652;9.792;2023-04-21T09:45:28;10.17;;;6.27;;
30243;SDS011;64022;53.652;9.792;2023-04-21T09:47:58;10.47;;;7.47;;
30243;SDS011;64022;53.652;9.792;2023-04-21T09:50:25;10.48;;;6.82;;
30243;SDS011;64022;53.652;9.792;2023-04-21T09:52:52;10.23;;;5.90;;
30243;SDS011;64022;53.652;9.792;2023-04-21T09:55:29;11.25;;;6.55;;
30243;SDS011;64022;53.652;9.792;2023-04-21T09:57:56;8.23;;;6.40;;
30243;SDS011;64022;53.652;9.792;2023-04-21T10:00:25;11.30;;;6.15;;
30243;SDS011;64022;53.652;9.792;2023-04-21T10:02:52;10.23;;;6.43;;
30243;SDS011;64022;53.652;9.792;2023-04-21T10:05:22;9.32;;;6.50;;
30243;SDS011;64022;53.652;9.792;2023-04-21T10:07:47;11.43;;;6.93;;
30243;SDS011;64022;53.652;9.792;2023-04-21T10:12:52;14.65;;;6.68;;
30243;SDS011;64022;53.652;9.792;2023-04-21T10:15:31;11.98;;;7.05;;
30243;SDS011;64022;53.652;9.792;2023-04-21T10:18:22;11.52;;;6.32;;
30243;SDS011;64022;53.652;9.792;2023-04-21T10:20:54;10.13;;;6.40;;
30243;SDS011;64022;53.652;9.792;2023-04-21T10:23:30;10.60;;;6.95;;
30243;SDS011;64022;53.652;9.792;2023-04-21T10:28:43;8.88;;;6.57;;
30243;SDS011;64022;53.652;9.792;2023-04-21T10:36:47;10.60;;;6.22;;
30243;SDS011;64022;53.652;9.792;2023-04-21T10:44:42;9.93;;;6.30;;
30243;SDS011;64022;53.652;9.792;2023-04-21T10:47:11;12.13;;;7.35;;
30243;SDS011;64022;53.652;9.792;2023-04-21T10:49:38;10.57;;;6.43;;
30243;SDS011;64022;53.652;9.792;2023-04-21T10:52:05;11.60;;;7.38;;
30243;SDS011;64022;53.652;9.792;2023-04-21T10:54:37;9.25;;;6.25;;
30243;SDS011;64022;53.652;9.792;2023-04-21T10:57:11;10.93;;;6.47;;
30243;SDS011;64022;53.652;9.792;2023-04-21T10:59:38;12.15;;;6.65;;
30243;SDS011;64022;53.652;9.792;2023-04-21T11:02:04;11.97;;;6.40;;
30243;SDS011;64022;53.652;9.792;2023-04-21T11:04:31;12.68;;;7.35;;
30243;SDS011;64022;53.652;9.792;2023-04-21T11:07:11;10.80;;;6.10;;
30243;SDS011;64022;53.652;9.792;2023-04-21T11:09:44;10.38;;;6.43;;
30243;SDS011;64022;53.652;9.792;2023-04-21T11:12:12;9.65;;;6.30;;
30243;SDS011;64022;53.652;9.792;2023-04-21T11:14:39;11.60;;;6.05;;
30243;SDS011;64022;53.652;9.792;2023-04-21T11:17:10;11.10;;;6.55;;
30243;SDS011;64022;53.652;9.792;2023-04-21T11:19:37;9.68;;;5.88;;
30243;SDS011;64022;53.652;9.792;2023-04-21T11:22:03;12.95;;;7.28;;
30243;SDS011;64022;53.652;9.792;2023-04-21T11:24:29;12.50;;;7.20;;
30243;SDS011;64022;53.652;9.792;2023-04-21T11:26:55;11.55;;;6.70;;
30243;SDS011;64022;53.652;9.792;2023-04-21T11:29:22;7.50;;;5.85;;
30243;SDS011;64022;53.652;9.792;2023-04-21T11:31:48;9.60;;;6.70;;
30243;SDS011;64022;53.652;9.792;2023-04-21T11:34:14;11.02;;;7.38;;
30243;SDS011;64022;53.652;9.792;2023-04-21T11:36:44;11.13;;;6.40;;
30243;SDS011;64022;53.652;9.792;2023-04-21T11:41:43;11.93;;;6.13;;
30243;SDS011;64022;53.652;9.792;2023-04-21T11:44:11;8.02;;;6.25;;
30243;SDS011;64022;53.652;9.792;2023-04-21T11:46:45;7.28;;;5.50;;
30243;SDS011;64022;53.652;9.792;2023-04-21T11:49:11;8.82;;;5.47;;
30243;SDS011;64022;53.652;9.792;2023-04-21T11:51:39;9.23;;;6.43;;
30243;SDS011;64022;53.652;9.792;2023-04-21T11:54:16;7.07;;;5.53;;
30243;SDS011;64022;53.652;9.792;2023-04-21T11:56:44;10.07;;;5.85;;
30243;SDS011;64022;53.652;9.792;2023-04-21T11:59:11;9.45;;;6.18;;
30243;SDS011;64022;53.652;9.792;2023-04-21T12:01:43;6.50;;;5.30;;
30243;SDS011;64022;53.652;9.792;2023-04-21T12:04:17;8.95;;;6.18;;
30243;SDS011;64022;53.652;9.792;2023-04-21T12:06:45;7.75;;;5.20;;
30243;SDS011;64022;53.652;9.792;2023-04-21T12:09:18;7.20;;;5.97;;
30243;SDS011;64022;53.652;9.792;2023-04-21T12:11:48;8.90;;;5.53;;
30243;SDS011;64022;53.652;9.792;2023-04-21T12:14:18;7.38;;;5.13;;
30243;SDS011;64022;53.652;9.792;2023-04-21T12:16:49;7.53;;;5.32;;
30243;SDS011;64022;53.652;9.792;2023-04-21T12:19:23;10.05;;;5.63;;
30243;SDS011;64022;53.652;9.792;2023-04-21T12:21:58;11.00;;;5.70;;
30243;SDS011;64022;53.652;9.792;2023-04-21T12:24:23;7.03;;;5.37;;
30243;SDS011;64022;53.652;9.792;2023-04-21T12:26:49;7.47;;;4.93;;
30243;SDS011;64022;53.652;9.792;2023-04-21T12:29:14;6.60;;;5.07;;
30243;SDS011;64022;53.652;9.792;2023-04-21T12:31:40;6.20;;;5.37;;
30243;SDS011;64022;53.652;9.792;2023-04-21T12:34:05;9.77;;;5.97;;
30243;SDS011;64022;53.652;9.792;2023-04-21T12:36:31;6.73;;;5.07;;
30243;SDS011;64022;53.652;9.792;2023-04-21T12:38:56;8.33;;;5.53;;
30243;SDS011;64022;53.652;9.792;2023-04-21T12:41:22;8.00;;;6.03;;
30243;SDS011;64022;53.652;9.792;2023-04-21T12:43:48;8.97;;;6.43;;
30243;SDS011;64022;53.652;9.792;2023-04-21T12:46:13;7.93;;;5.40;;
30243;SDS011;64022;53.652;9.792;2023-04-21T12:48:39;9.47;;;5.47;;
30243;SDS011;64022;53.652;9.792;2023-04-21T12:51:04;8.03;;;5.30;;
30243;SDS011;64022;53.652;9.792;2023-04-21T12:53:30;13.80;;;5.37;;
30243;SDS011;64022;53.652;9.792;2023-04-21T12:55:56;8.53;;;5.67;;
30243;SDS011;64022;53.652;9.792;2023-04-21T12:58:21;9.37;;;5.23;;
30243;SDS011;64022;53.652;9.792;2023-04-21T13:00:47;8.30;;;5.53;;
30243;SDS011;64022;53.652;9.792;2023-04-21T13:03:13;9.70;;;6.23;;
30243;SDS011;64022;53.652;9.792;2023-04-21T13:05:38;9.70;;;5.50;;
30243;SDS011;64022;53.652;9.792;2023-04-21T13:08:04;6.40;;;5.20;;
30243;SDS011;64022;53.652;9.792;2023-04-21T13:10:29;6.87;;;5.00;;
30243;SDS011;64022;53.652;9.792;2023-04-21T13:12:55;7.63;;;4.90;;
30243;SDS011;64022;53.652;9.792;2023-04-21T13:15:20;7.67;;;4.87;;
30243;SDS011;64022;53.652;9.792;2023-04-21T13:17:46;7.53;;;5.03;;
30243;SDS011;64022;53.652;9.792;2023-04-21T13:20:12;5.57;;;4.50;;
30243;SDS011;64022;53.652;9.792;2023-04-21T13:22:37;6.77;;;4.80;;
30243;SDS011;64022;53.652;9.792;2023-04-21T13:25:03;6.67;;;4.70;;
30243;SDS011;64022;53.652;9.792;2023-04-21T13:27:30;5.45;;;4.43;;
30243;SDS011;64022;53.652;9.792;2023-04-21T13:29:57;5.53;;;4.55;;
30243;SDS011;64022;53.652;9.792;2023-04-21T13:32:22;6.23;;;4.53;;
30243;SDS011;64022;53.652;9.792;2023-04-21T13:34:48;6.83;;;4.53;;
30243;SDS011;64022;53.652;9.792;2023-04-21T13:37:13;7.07;;;5.23;;
30243;SDS011;64022;53.652;9.792;2023-04-21T13:39:40;5.93;;;4.45;;
30243;SDS011;64022;53.652;9.792;2023-04-21T13:42:06;6.77;;;4.80;;
30243;SDS011;64022;53.652;9.792;2023-04-21T13:44:32;4.90;;;4.40;;
30243;SDS011;64022;53.652;9.792;2023-04-21T13:46:58;4.93;;;3.97;;
30243;SDS011;64022;53.652;9.792;2023-04-21T13:49:24;7.00;;;4.60;;
30243;SDS011;64022;53.652;9.792;2023-04-21T13:51:49;6.20;;;4.23;;
30243;SDS011;64022;53.652;9.792;2023-04-21T13:54:15;5.03;;;4.33;;
30243;SDS011;64022;53.652;9.792;2023-04-21T13:56:40;6.07;;;4.80;;
30243;SDS011;64022;53.652;9.792;2023-04-21T13:59:06;6.20;;;4.50;;
30243;SDS011;64022;53.652;9.792;2023-04-21T14:01:34;7.55;;;4.28;;
30243;SDS011;64022;53.652;9.792;2023-04-21T14:04:00;6.10;;;4.50;;
30243;SDS011;64022;53.652;9.792;2023-04-21T14:06:25;6.80;;;4.70;;
30243;SDS011;64022;53.652;9.792;2023-04-21T14:08:51;6.40;;;4.33;;
30243;SDS011;64022;53.652;9.792;2023-04-21T14:11:17;5.70;;;3.67;;
30243;SDS011;64022;53.652;9.792;2023-04-21T14:13:42;6.03;;;4.17;;
30243;SDS011;64022;53.652;9.792;2023-04-21T14:16:08;6.77;;;4.73;;
30243;SDS011;64022;53.652;9.792;2023-04-21T14:18:34;4.57;;;3.95;;
30243;SDS011;64022;53.652;9.792;2023-04-21T14:21:02;7.68;;;4.45;;
30243;SDS011;64022;53.652;9.792;2023-04-21T14:23:27;5.03;;;4.27;;
30243;SDS011;64022;53.652;9.792;2023-04-21T14:25:53;4.87;;;4.37;;
30243;SDS011;64022;53.652;9.792;2023-04-21T14:28:18;5.80;;;4.23;;
30243;SDS011;64022;53.652;9.792;2023-04-21T14:30:44;5.87;;;3.97;;
30243;SDS011;64022;53.652;9.792;2023-04-21T14:33:10;6.37;;;3.93;;
30243;SDS011;64022;53.652;9.792;2023-04-21T14:35:36;6.13;;;4.40;;
30243;SDS011;64022;53.652;9.792;2023-04-21T14:38:01;5.67;;;3.90;;
30243;SDS011;64022;53.652;9.792;2023-04-21T14:40:27;4.67;;;3.83;;
30243;SDS011;64022;53.652;9.792;2023-04-21T14:42:52;5.70;;;3.73;;
30243;SDS011;64022;53.652;9.792;2023-04-21T14:45:18;4.93;;;4.07;;
30243;SDS011;64022;53.652;9.792;2023-04-21T14:47:44;5.03;;;3.90;;
30243;SDS011;64022;53.652;9.792;2023-04-21T14:50:09;4.97;;;4.10;;
30243;SDS011;64022;53.652;9.792;2023-04-21T14:52:35;5.93;;;4.30;;
30243;SDS011;64022;53.652;9.792;2023-04-21T14:55:00;4.70;;;4.00;;
30243;SDS011;64022;53.652;9.792;2023-04-21T14:59:53;4.57;;;3.85;;
30243;SDS011;64022;53.652;9.792;2023-04-21T15:02:19;5.10;;;3.60;;
30243;SDS011;64022;53.652;9.792;2023-04-21T15:04:45;5.45;;;3.90;;
30243;SDS011;64022;53.652;9.792;2023-04-21T15:07:11;4.20;;;3.80;;
30243;SDS011;64022;53.652;9.792;2023-04-21T15:09:36;5.67;;;4.27;;
30243;SDS011;64022;53.652;9.792;2023-04-21T15:12:03;5.13;;;3.80;;